Time;durP1;ratioP1;P1;durP2;ratioP2;P2;SDS_P1;SDS_P2;PMS_P1;PMS_P2;Temp;Humidity;BMP_temperature;BMP_pressure;BME280_temperature;BME280_humidity;BME280_pressure;Samples;Min_cycle;Max_cycle;Signal;HPM_P1;HPM_P2
2022/11/29 00:01:18;;;;;;;3.92;2.75;;;;;;;;;;5067247;28;20429;-45
2022/11/29 00:03:44;;;;;;;5.18;2.55;;;;;;;;;;5069350;28;20055;-44
2022/11/29 00:06:12;;;;;;;4.05;2.35;;;;;;;;;;5069468;28;20389;-45
2022/11/29 00:08:38;;;;;;;4.97;2.70;;;;;;;;;;5066984;28;20036;-44
2022/11/29 00:11:05;;;;;;;3.20;2.40;;;;;;;;;;5063538;28;20024;-45
2022/11/29 00:13:31;;;;;;;5.47;2.85;;;;;;;;;;5070274;28;20024;-45
2022/11/29 00:16:01;;;;;;;3.33;2.50;;;;;;;;;;5063896;28;20035;-44
2022/11/29 00:18:27;;;;;;;4.13;2.78;;;;;;;;;;5070914;28;20111;-44
2022/11/29 00:20:53;;;;;;;3.70;2.80;;;;;;;;;;5053450;28;20183;-45
2022/11/29 00:23:19;;;;;;;3.95;2.40;;;;;;;;;;5071250;28;20028;-47
2022/11/29 00:25:45;;;;;;;4.72;2.45;;;;;;;;;;5066833;28;20123;-45
2022/11/29 00:28:11;;;;;;;4.05;2.42;;;;;;;;;;5068437;28;20020;-44
2022/11/29 00:30:37;;;;;;;3.53;2.53;;;;;;;;;;5064056;28;20100;-45
2022/11/29 00:33:03;;;;;;;3.35;2.42;;;;;;;;;;5067698;28;20025;-45
2022/11/29 00:35:29;;;;;;;3.40;2.47;;;;;;;;;;5070035;28;20032;-44
2022/11/29 00:37:55;;;;;;;3.45;2.90;;;;;;;;;;5075385;27;20543;-45
2022/11/29 00:40:21;;;;;;;3.75;2.55;;;;;;;;;;5061801;28;20033;-47
2022/11/29 00:42:47;;;;;;;3.45;2.47;;;;;;;;;;5067206;28;20055;-44
2022/11/29 00:45:13;;;;;;;3.80;2.20;;;;;;;;;;5071690;28;20474;-44
2022/11/29 00:47:39;;;;;;;3.05;2.25;;;;;;;;;;5070048;28;20826;-44
2022/11/29 00:50:06;;;;;;;3.20;2.75;;;;;;;;;;5065778;28;20064;-44
2022/11/29 00:52:32;;;;;;;3.03;2.17;;;;;;;;;;5066935;28;20039;-44
2022/11/29 00:54:58;;;;;;;2.70;2.30;;;;;;;;;;5070397;28;20037;-45
2022/11/29 00:57:24;;;;;;;2.85;2.10;;;;;;;;;;5067736;28;20029;-45
2022/11/29 00:59:50;;;;;;;3.65;2.35;;;;;;;;;;5071521;28;20043;-45
2022/11/29 01:02:16;;;;;;;3.25;2.08;;;;;;;;;;5069561;28;20024;-44
2022/11/29 01:04:41;;;;;;;3.38;2.17;;;;;;;;;;5066776;28;20029;-44
2022/11/29 01:07:07;;;;;;;3.42;2.40;;;;;;;;;;5068426;28;20538;-45
2022/11/29 01:09:33;;;;;;;3.72;2.38;;;;;;;;;;5064834;28;20459;-45
2022/11/29 01:11:59;;;;;;;2.90;2.20;;;;;;;;;;5066959;28;20032;-44
2022/11/29 01:14:25;;;;;;;3.35;2.08;;;;;;;;;;5063717;28;20100;-45
2022/11/29 01:16:51;;;;;;;3.40;3.05;;;;;;;;;;5070448;28;20420;-45
2022/11/29 01:19:17;;;;;;;3.97;2.45;;;;;;;;;;5070894;28;20032;-44
2022/11/29 01:21:43;;;;;;;3.67;2.20;;;;;;;;;;5068102;28;20086;-44
2022/11/29 01:24:09;;;;;;;2.35;1.90;;;;;;;;;;5070977;28;20362;-44
2022/11/29 01:26:35;;;;;;;2.30;1.95;;;;;;;;;;5065828;28;20058;-45
2022/11/29 01:29:01;;;;;;;2.85;2.20;;;;;;;;;;5069449;28;20032;-45
2022/11/29 01:40:04;;;;;;;3.20;2.67;;;;;;;;;;5067610;28;20516;-44
2022/11/29 01:42:30;;;;;;;3.65;2.08;;;;;;;;;;5068649;28;20024;-44
2022/11/29 01:45:00;;;;;;;3.78;2.17;;;;;;;;;;5070579;28;20074;-44
2022/11/29 01:47:26;;;;;;;4.50;2.90;;;;;;;;;;5063115;28;20029;-45
2022/11/29 01:49:52;;;;;;;3.13;2.25;;;;;;;;;;5069450;28;20424;-44
2022/11/29 01:52:20;;;;;;;2.40;1.92;;;;;;;;;;5063457;28;20033;-45
2022/11/29 01:54:48;;;;;;;3.53;2.30;;;;;;;;;;5061248;28;20024;-44
2022/11/29 01:57:15;;;;;;;2.78;1.90;;;;;;;;;;5078824;28;20040;-45
2022/11/29 01:59:43;;;;;;;2.50;1.90;;;;;;;;;;5083373;28;20028;-44
2022/11/29 02:02:12;;;;;;;3.03;2.25;;;;;;;;;;5087787;28;20115;-44
2022/11/29 02:04:38;;;;;;;2.72;2.25;;;;;;;;;;5082765;28;20105;-44
2022/11/29 02:07:05;;;;;;;2.88;1.83;;;;;;;;;;5092803;28;20039;-44
2022/11/29 02:09:31;;;;;;;2.00;1.75;;;;;;;;;;5086820;28;20024;-45
2022/11/29 02:12:15;;;;;;;2.50;1.55;;;;;;;;;;5094179;28;20362;-44
2022/11/29 02:15:01;;;;;;;2.80;1.92;;;;;;;;;;5088381;28;20024;-45
2022/11/29 02:17:33;;;;;;;2.92;1.95;;;;;;;;;;5085531;28;20024;-45
2022/11/29 02:20:14;;;;;;;2.65;1.70;;;;;;;;;;5091923;28;20032;-45
2022/11/29 02:22:46;;;;;;;2.17;1.63;;;;;;;;;;5081490;28;20162;-44
2022/11/29 02:25:12;;;;;;;;;;;;;;;;;;5093161;28;20024;-44
2022/11/29 02:28:07;;;;;;;2.53;1.88;;;;;;;;;;5086313;28;20687;-44
2022/11/29 02:30:42;;;;;;;2.88;2.20;;;;;;;;;;5106635;28;20110;-44
2022/11/29 02:33:20;;;;;;;2.53;1.60;;;;;;;;;;5090404;28;20069;-45
2022/11/29 02:35:49;;;;;;;2.13;1.63;;;;;;;;;;5093664;28;20043;-45
2022/11/29 02:38:35;;;;;;;3.15;2.00;;;;;;;;;;5086847;28;20032;-45
2022/11/29 02:41:15;;;;;;;3.20;2.05;;;;;;;;;;5061795;28;20036;-44
2022/11/29 02:44:00;;;;;;;2.78;1.83;;;;;;;;;;5066282;28;20032;-44
2022/11/29 02:46:32;;;;;;;2.15;1.55;;;;;;;;;;5070580;28;20031;-44
2022/11/29 02:48:58;;;;;;;;;;;;;;;;;;5070883;28;20377;-44
2022/11/29 02:51:30;;;;;;;4.07;1.70;;;;;;;;;;5063897;28;19908;-47
2022/11/29 02:54:00;;;;;;;3.30;2.00;;;;;;;;;;5069320;28;20048;-45
2022/11/29 02:56:31;;;;;;;2.13;1.63;;;;;;;;;;5067542;28;20082;-45
2022/11/29 02:59:29;;;;;;;2.25;1.77;;;;;;;;;;5072577;28;20028;-44
2022/11/29 03:02:17;;;;;;;1.90;1.65;;;;;;;;;;5065814;28;20143;-45
2022/11/29 03:04:58;;;;;;;2.63;2.13;;;;;;;;;;5072450;28;20052;-44
2022/11/29 03:07:42;;;;;;;2.63;1.88;;;;;;;;;;5062048;28;20068;-47
2022/11/29 03:10:23;;;;;;;2.22;1.70;;;;;;;;;;5072194;28;20135;-44
2022/11/29 03:12:49;;;;;;;1.83;1.52;;;;;;;;;;5072260;28;20040;-46
2022/11/29 03:15:15;;;;;;;2.97;2.38;;;;;;;;;;5067493;28;20104;-44
2022/11/29 03:18:08;;;;;;;2.63;1.60;;;;;;;;;;5071095;28;20111;-44
2022/11/29 03:20:33;;;;;;;;;;;;;;;;;;5038014;28;20454;-44
2022/11/29 03:23:18;;;;;;;2.78;1.77;;;;;;;;;;5067619;28;20002;-44
2022/11/29 03:26:10;;;;;;;2.38;1.70;;;;;;;;;;5063640;28;20057;-45
2022/11/29 03:29:05;;;;;;;2.47;1.70;;;;;;;;;;5069439;28;20037;-44
2022/11/29 03:31:36;;;;;;;3.83;2.00;;;;;;;;;;5039474;28;20048;-45
2022/11/29 03:34:11;;;;;;;2.08;1.88;;;;;;;;;;5053343;28;20025;-44
2022/11/29 03:36:37;;;;;;;1.88;1.50;;;;;;;;;;5049141;28;20382;-44
2022/11/29 03:39:05;;;;;;;2.25;1.67;;;;;;;;;;5052986;28;20044;-45
2022/11/29 03:41:43;;;;;;;2.20;1.70;;;;;;;;;;5063688;28;20028;-45
2022/11/29 03:44:17;;;;;;;1.90;1.60;;;;;;;;;;5069124;28;20032;-44
2022/11/29 03:46:43;;;;;;;2.80;2.25;;;;;;;;;;5070349;28;20099;-44
2022/11/29 03:49:13;;;;;;;1.83;1.67;;;;;;;;;;5064394;28;20157;-45
2022/11/29 03:51:46;;;;;;;2.40;1.80;;;;;;;;;;5067356;28;20029;-45
2022/11/29 03:54:16;;;;;;;1.70;1.48;;;;;;;;;;5071832;28;20021;-44
2022/11/29 03:56:42;;;;;;;1.90;1.40;;;;;;;;;;5070240;28;20039;-44
2022/11/29 03:59:11;;;;;;;2.63;1.50;;;;;;;;;;5065120;28;20028;-45
2022/11/29 04:01:50;;;;;;;2.25;1.50;;;;;;;;;;5064753;28;20542;-44
2022/11/29 04:04:25;;;;;;;2.25;1.40;;;;;;;;;;5071838;28;20071;-45
2022/11/29 04:07:00;;;;;;;2.50;1.83;;;;;;;;;;5065889;28;20043;-45
2022/11/29 04:09:34;;;;;;;2.25;1.63;;;;;;;;;;5070629;28;20493;-45
2022/11/29 04:12:18;;;;;;;2.50;2.13;;;;;;;;;;5071434;28;20037;-44
2022/11/29 04:14:50;;;;;;;1.85;1.42;;;;;;;;;;5069310;28;20032;-44
2022/11/29 04:17:29;;;;;;;2.70;2.17;;;;;;;;;;5070434;28;20040;-44
2022/11/29 04:20:30;;;;;;;1.67;1.45;;;;;;;;;;5068231;28;20024;-45
2022/11/29 04:23:09;;;;;;;1.90;1.35;;;;;;;;;;5031514;28;20044;-44
2022/11/29 04:25:39;;;;;;;2.25;1.65;;;;;;;;;;5056000;28;20111;-44
2022/11/29 04:28:17;;;;;;;2.78;1.30;;;;;;;;;;5069467;28;20032;-44
2022/11/29 04:31:00;;;;;;;1.92;1.70;;;;;;;;;;5067185;28;20028;-44
2022/11/29 04:33:53;;;;;;;2.17;1.40;;;;;;;;;;5069770;28;20553;-44
2022/11/29 04:36:38;;;;;;;1.98;1.50;;;;;;;;;;5069497;28;20108;-45
2022/11/29 04:42:39;;;;;;;2.50;1.60;;;;;;;;;;5090784;28;20110;-47
2022/11/29 04:45:08;;;;;;;1.70;1.10;;;;;;;;;;5087596;28;20111;-45
2022/11/29 04:47:34;;;;;;;2.15;1.48;;;;;;;;;;5088028;28;20024;-44
2022/11/29 04:50:24;;;;;;;2.00;1.23;;;;;;;;;;5084068;28;20066;-44
2022/11/29 04:53:06;;;;;;;1.25;1.15;;;;;;;;;;5075660;28;20032;-45
2022/11/29 04:55:32;;;;;;;;;;;;;;;;;;5087785;28;20408;-45
2022/11/29 04:58:02;;;;;;;2.03;1.42;;;;;;;;;;5091855;28;19908;-45
2022/11/29 05:00:29;;;;;;;1.55;1.30;;;;;;;;;;5087095;28;20035;-45
2022/11/29 05:03:07;;;;;;;2.08;1.60;;;;;;;;;;5090078;28;20055;-45
2022/11/29 05:05:42;;;;;;;2.33;1.40;;;;;;;;;;5086760;28;20032;-44
2022/11/29 05:08:08;;;;;;;1.42;1.20;;;;;;;;;;5085247;28;20043;-44
2022/11/29 05:10:43;;;;;;;2.08;1.45;;;;;;;;;;5089045;28;20032;-45
2022/11/29 05:13:24;;;;;;;1.67;1.17;;;;;;;;;;5090405;28;20028;-44
2022/11/29 05:16:00;;;;;;;1.70;1.50;;;;;;;;;;5087103;28;20028;-45
2022/11/29 05:18:44;;;;;;;1.33;1.17;;;;;;;;;;5090521;28;20770;-45
2022/11/29 05:21:28;;;;;;;1.58;1.30;;;;;;;;;;5088283;28;20114;-45
2022/11/29 05:24:00;;;;;;;1.88;1.63;;;;;;;;;;5085489;28;20443;-44
2022/11/29 05:26:31;;;;;;;2.00;1.47;;;;;;;;;;5089830;28;20024;-45
2022/11/29 05:28:59;;;;;;;2.33;1.50;;;;;;;;;;5089667;28;20115;-44
2022/11/29 05:31:37;;;;;;;1.75;1.17;;;;;;;;;;5084150;28;20102;-44
2022/11/29 05:34:21;;;;;;;1.23;1.13;;;;;;;;;;5084780;28;20076;-44
2022/11/29 05:37:05;;;;;;;1.50;1.23;;;;;;;;;;5087468;28;20039;-44
2022/11/29 05:39:43;;;;;;;2.53;1.55;;;;;;;;;;5087867;28;20047;-45
2022/11/29 05:42:12;;;;;;;2.28;0.98;;;;;;;;;;5089825;28;20063;-45
2022/11/29 05:44:43;;;;;;;1.65;1.30;;;;;;;;;;5075989;28;20027;-45
2022/11/29 05:47:09;;;;;;;1.48;1.23;;;;;;;;;;5084372;28;20036;-44
2022/11/29 05:50:14;;;;;;;1.65;1.08;;;;;;;;;;5090338;28;20594;-45
2022/11/29 05:52:53;;;;;;;1.55;1.08;;;;;;;;;;5025516;28;20545;-44
2022/11/29 05:55:24;;;;;;;3.88;1.52;;;;;;;;;;5027319;28;20026;-44
2022/11/29 05:57:57;;;;;;;1.15;0.82;;;;;;;;;;5059311;28;20048;-46
2022/11/29 06:00:24;;;;;;;2.10;1.30;;;;;;;;;;5083158;28;20036;-47
2022/11/29 06:02:50;;;;;;;1.38;1.27;;;;;;;;;;5085844;28;20047;-45
2022/11/29 06:05:39;;;;;;;2.55;1.15;;;;;;;;;;5086433;28;20024;-44
2022/11/29 06:08:24;;;;;;;1.40;1.20;;;;;;;;;;5079020;28;20532;-45
2022/11/29 06:11:16;;;;;;;1.30;1.20;;;;;;;;;;5089452;28;20035;-45
2022/11/29 06:13:57;;;;;;;1.60;1.00;;;;;;;;;;5077537;28;20055;-45
2022/11/29 06:16:23;;;;;;;1.70;0.87;;;;;;;;;;5088732;28;20028;-47
2022/11/29 06:19:10;;;;;;;1.30;1.10;;;;;;;;;;5093038;28;20047;-44
2022/11/29 06:21:37;;;;;;;2.00;1.65;;;;;;;;;;5084961;28;20020;-44
2022/11/29 06:24:13;;;;;;;1.70;1.08;;;;;;;;;;5083582;28;20028;-44
2022/11/29 06:27:01;;;;;;;10.93;2.25;;;;;;;;;;5082037;28;20500;-44
2022/11/29 06:29:45;;;;;;;2.55;1.25;;;;;;;;;;5081759;28;20504;-45
2022/11/29 06:32:17;;;;;;;2.22;1.08;;;;;;;;;;5079650;28;20385;-45
2022/11/29 06:34:50;;;;;;;3.42;1.27;;;;;;;;;;5079486;28;20099;-45
2022/11/29 06:37:35;;;;;;;1.30;0.90;;;;;;;;;;5084982;28;20039;-44
2022/11/29 06:40:02;;;;;;;3.45;1.00;;;;;;;;;;5091034;28;20392;-44
2022/11/29 06:42:28;;;;;;;1.55;1.00;;;;;;;;;;5089516;28;20044;-45
2022/11/29 06:44:54;;;;;;;1.70;0.80;;;;;;;;;;5086674;28;20027;-44
2022/11/29 06:47:43;;;;;;;3.35;1.08;;;;;;;;;;5080929;28;20036;-47
2022/11/29 06:50:09;;;;;;;3.08;1.55;;;;;;;;;;5098770;28;20107;-44
2022/11/29 06:52:41;;;;;;;2.60;1.45;;;;;;;;;;5092456;28;20489;-44
2022/11/29 06:55:10;;;;;;;2.30;0.90;;;;;;;;;;5094460;28;20035;-44
2022/11/29 06:57:48;;;;;;;4.45;1.30;;;;;;;;;;5093412;28;20031;-46
2022/11/29 07:00:25;;;;;;;4.60;1.15;;;;;;;;;;5084922;28;20027;-45
2022/11/29 07:03:10;;;;;;;3.08;1.08;;;;;;;;;;5094149;28;20499;-44
2022/11/29 07:05:37;;;;;;;2.70;1.10;;;;;;;;;;5082458;28;20052;-46
2022/11/29 07:08:03;;;;;;;2.47;0.90;;;;;;;;;;5081970;28;20103;-44
2022/11/29 07:10:31;;;;;;;2.75;1.13;;;;;;;;;;5091740;28;20081;-45
2022/11/29 07:12:57;;;;;;;2.10;1.40;;;;;;;;;;5094483;28;20031;-44
2022/11/29 07:15:23;;;;;;;2.20;0.95;;;;;;;;;;5093289;28;20039;-47
2022/11/29 07:18:02;;;;;;;3.38;1.13;;;;;;;;;;5094727;28;20375;-45
2022/11/29 07:20:28;;;;;;;2.40;1.10;;;;;;;;;;5092971;28;20036;-45
2022/11/29 07:23:06;;;;;;;4.97;1.10;;;;;;;;;;5090721;28;20070;-44
2022/11/29 07:25:43;;;;;;;2.17;0.90;;;;;;;;;;5085549;28;20024;-45
2022/11/29 07:28:27;;;;;;;2.95;1.08;;;;;;;;;;5087587;28;20023;-44
2022/11/29 07:31:10;;;;;;;4.18;1.13;;;;;;;;;;5091200;28;20032;-44
2022/11/29 07:33:42;;;;;;;2.67;0.98;;;;;;;;;;5091986;28;20030;-45
2022/11/29 07:36:08;;;;;;;;;;;;;;;;;;5085388;28;20026;-45
2022/11/29 07:39:03;;;;;;;3.17;0.88;;;;;;;;;;5082141;28;19907;-45
2022/11/29 07:41:35;;;;;;;2.00;1.35;;;;;;;;;;5076596;28;20044;-45
2022/11/29 07:44:16;;;;;;;1.60;0.80;;;;;;;;;;5092619;28;20110;-44
2022/11/29 07:46:42;;;;;;;1.83;0.80;;;;;;;;;;5092513;28;20606;-45
2022/11/29 07:49:11;;;;;;;5.45;1.50;;;;;;;;;;5093418;28;20111;-45
2022/11/29 07:51:37;;;;;;;6.18;1.58;;;;;;;;;;5092061;28;20099;-45
2022/11/29 07:54:03;;;;;;;2.78;1.30;;;;;;;;;;5093764;28;20459;-45
2022/11/29 07:56:29;;;;;;;2.08;1.27;;;;;;;;;;5089427;28;20500;-44
2022/11/29 07:58:55;;;;;;;3.53;1.30;;;;;;;;;;5093532;28;20024;-45
2022/11/29 08:01:21;;;;;;;6.50;1.58;;;;;;;;;;5090916;28;20024;-47
2022/11/29 08:03:47;;;;;;;5.05;1.40;;;;;;;;;;5092227;28;20054;-44
2022/11/29 08:06:13;;;;;;;4.53;1.38;;;;;;;;;;5092549;28;20438;-44
2022/11/29 08:08:39;;;;;;;9.27;2.20;;;;;;;;;;5085254;28;20028;-44
2022/11/29 08:11:12;;;;;;;6.22;1.30;;;;;;;;;;5081202;28;20093;-44
2022/11/29 08:13:38;;;;;;;4.18;1.15;;;;;;;;;;5082581;28;20025;-44
2022/11/29 08:16:04;;;;;;;7.45;1.85;;;;;;;;;;5081354;28;20024;-43
2022/11/29 08:18:30;;;;;;;3.17;1.00;;;;;;;;;;5093417;28;20024;-44
2022/11/29 08:20:56;;;;;;;4.57;1.30;;;;;;;;;;5092541;28;20361;-43
2022/11/29 08:23:21;;;;;;;5.18;1.20;;;;;;;;;;5092492;28;20069;-47
2022/11/29 08:25:48;;;;;;;5.13;1.30;;;;;;;;;;5090667;28;20028;-44
2022/11/29 08:28:14;;;;;;;5.70;1.20;;;;;;;;;;5092923;28;20115;-44
2022/11/29 08:30:40;;;;;;;4.90;1.52;;;;;;;;;;5084098;28;20051;-43
2022/11/29 08:33:06;;;;;;;4.72;1.75;;;;;;;;;;5096587;28;20020;-43
2022/11/29 08:35:33;;;;;;;3.95;1.98;;;;;;;;;;5097072;28;20026;-44
2022/11/29 08:37:59;;;;;;;3.80;1.30;;;;;;;;;;5092480;28;20035;-44
2022/11/29 08:40:25;;;;;;;2.35;1.33;;;;;;;;;;5087863;28;20040;-46
2022/11/29 08:42:51;;;;;;;3.20;1.27;;;;;;;;;;5072464;28;20020;-44
2022/11/29 08:45:17;;;;;;;1.77;0.85;;;;;;;;;;5072384;28;20476;-44
2022/11/29 08:47:43;;;;;;;6.70;2.15;;;;;;;;;;5064074;28;20032;-44
2022/11/29 08:50:13;;;;;;;5.32;1.15;;;;;;;;;;5072104;28;20032;-44
2022/11/29 08:55:26;;;;;;;4.03;1.15;;;;;;;;;;5070948;28;20124;-47
2022/11/29 08:57:52;;;;;;;3.28;1.05;;;;;;;;;;5071773;28;20063;-44
2022/11/29 09:00:22;;;;;;;6.28;1.15;;;;;;;;;;5071869;28;20024;-44
2022/11/29 09:02:48;;;;;;;2.55;0.80;;;;;;;;;;5071302;28;20029;-44
2022/11/29 09:05:14;;;;;;;3.00;1.35;;;;;;;;;;5068972;28;20075;-44
2022/11/29 09:07:40;;;;;;;3.30;1.02;;;;;;;;;;5070062;28;20101;-44
2022/11/29 09:10:07;;;;;;;4.32;1.30;;;;;;;;;;5070948;28;20465;-43
2022/11/29 09:12:34;;;;;;;2.50;1.08;;;;;;;;;;5070545;28;20025;-44
2022/11/29 09:15:00;;;;;;;4.93;1.30;;;;;;;;;;5071735;28;20024;-44
2022/11/29 09:17:26;;;;;;;4.20;0.80;;;;;;;;;;5070248;28;20055;-44
2022/11/29 09:19:52;;;;;;;5.50;1.60;;;;;;;;;;5053248;28;20032;-44
2022/11/29 09:22:18;;;;;;;3.50;1.33;;;;;;;;;;5059764;28;20021;-44
2022/11/29 09:24:45;;;;;;;3.22;1.58;;;;;;;;;;5070975;28;20434;-44
2022/11/29 09:27:11;;;;;;;3.10;1.20;;;;;;;;;;5071108;28;20390;-44
2022/11/29 09:29:37;;;;;;;4.13;1.10;;;;;;;;;;5070328;28;20036;-44
2022/11/29 09:32:03;;;;;;;2.58;0.80;;;;;;;;;;5070946;28;20013;-44
2022/11/29 09:34:29;;;;;;;5.47;1.45;;;;;;;;;;5070942;28;20024;-44
2022/11/29 09:36:56;;;;;;;3.28;1.00;;;;;;;;;;5061971;28;20021;-44
2022/11/29 09:39:22;;;;;;;4.63;1.40;;;;;;;;;;5068467;28;20021;-46
2022/11/29 09:42:00;;;;;;;3.45;1.23;;;;;;;;;;5069894;28;20382;-44
2022/11/29 09:44:34;;;;;;;3.42;1.00;;;;;;;;;;5070648;28;20480;-45
2022/11/29 09:56:15;;;;;;;3.13;1.10;;;;;;;;;;5058741;28;20047;-43
2022/11/29 09:58:47;;;;;;;3.40;1.17;;;;;;;;;;5070317;28;20354;-43
2022/11/29 10:01:13;;;;;;;;;;;;;;;;;;5067189;28;20031;-43
2022/11/29 10:03:45;;;;;;;2.38;1.02;;;;;;;;;;5070183;28;20354;-43
2022/11/29 10:06:17;;;;;;;8.43;1.65;;;;;;;;;;5058660;28;20037;-43
2022/11/29 10:08:49;;;;;;;3.95;1.50;;;;;;;;;;5070104;28;20616;-43
2022/11/29 10:11:28;;;;;;;5.20;1.58;;;;;;;;;;5068864;28;20539;-44
2022/11/29 10:13:57;;;;;;;2.33;1.13;;;;;;;;;;5070790;28;20112;-43
2022/11/29 10:16:42;;;;;;;21.20;1.95;;;;;;;;;;5069810;28;20070;-47
2022/11/29 10:19:32;;;;;;;7.38;1.58;;;;;;;;;;5070929;28;20033;-43
2022/11/29 10:22:14;;;;;;;2.03;1.17;;;;;;;;;;5064370;28;20082;-43
2022/11/29 10:24:42;;;;;;;5.30;1.48;;;;;;;;;;5072824;28;20029;-44
2022/11/29 10:27:14;;;;;;;5.03;1.27;;;;;;;;;;5074209;28;20031;-43
2022/11/29 10:29:40;;;;;;;5.00;1.50;;;;;;;;;;5062405;28;20039;-44
2022/11/29 10:32:12;;;;;;;4.28;1.42;;;;;;;;;;5073907;28;20092;-44
2022/11/29 10:34:38;;;;;;;4.30;1.20;;;;;;;;;;5074124;28;20400;-43
2022/11/29 10:37:05;;;;;;;2.67;1.33;;;;;;;;;;5073859;28;20048;-43
2022/11/29 10:39:38;;;;;;;2.92;1.35;;;;;;;;;;5073887;28;20031;-44
2022/11/29 10:42:47;;;;;;;3.13;1.48;;;;;;;;;;5064573;28;20117;-44
2022/11/29 10:44:51;;;;;;;2.80;1.50;;;;;;;;;;5074118;28;20029;-43
2022/11/29 10:47:17;;;;;;;3.80;1.73;;;;;;;;;;5070729;28;20048;-43
2022/11/29 10:49:43;;;;;;;2.88;1.13;;;;;;;;;;5073159;28;20192;-44
2022/11/29 10:52:22;;;;;;;2.60;1.55;;;;;;;;;;5073929;28;20029;-44
2022/11/29 10:54:49;;;;;;;3.17;1.30;;;;;;;;;;5074572;28;20039;-44
2022/11/29 10:57:17;;;;;;;3.72;1.35;;;;;;;;;;5073812;28;20044;-44
2022/11/29 10:59:57;;;;;;;1.77;1.30;;;;;;;;;;5068296;28;20025;-44
2022/11/29 11:02:24;;;;;;;3.30;1.90;;;;;;;;;;5070641;28;20416;-47
2022/11/29 11:04:50;;;;;;;2.90;1.92;;;;;;;;;;5064547;28;20025;-44
2022/11/29 11:07:22;;;;;;;4.80;2.10;;;;;;;;;;5072787;28;20025;-44
2022/11/29 11:09:49;;;;;;;6.88;2.17;;;;;;;;;;5067495;28;20032;-44
2022/11/29 11:12:15;;;;;;;8.95;3.53;;;;;;;;;;5073624;28;20440;-44
2022/11/29 11:14:42;;;;;;;16.40;6.57;;;;;;;;;;5073122;28;20088;-44
2022/11/29 11:17:25;;;;;;;12.95;6.10;;;;;;;;;;5073302;28;20066;-44
2022/11/29 11:20:14;;;;;;;13.68;6.32;;;;;;;;;;5068948;28;20028;-45
2022/11/29 11:22:40;;;;;;;10.75;5.38;;;;;;;;;;5068955;28;20040;-44
2022/11/29 11:25:23;;;;;;;14.23;5.90;;;;;;;;;;5073749;28;20028;-44
2022/11/29 11:27:49;;;;;;;13.13;5.88;;;;;;;;;;5063334;28;20088;-44
2022/11/29 11:30:22;;;;;;;12.25;5.90;;;;;;;;;;5073689;28;20103;-44
2022/11/29 11:33:07;;;;;;;14.93;6.00;;;;;;;;;;5073066;28;20035;-44
2022/11/29 11:35:34;;;;;;;13.68;6.03;;;;;;;;;;5072297;28;20045;-44
2022/11/29 11:38:00;;;;;;;18.17;7.38;;;;;;;;;;5062003;28;20386;-44
2022/11/29 11:40:27;;;;;;;13.88;6.32;;;;;;;;;;5071983;28;20041;-47
2022/11/29 11:42:55;;;;;;;12.60;7.63;;;;;;;;;;5070220;28;20071;-44
2022/11/29 11:45:26;;;;;;;11.88;6.80;;;;;;;;;;5067807;28;20025;-47
2022/11/29 11:47:53;;;;;;;13.23;6.07;;;;;;;;;;5073194;28;20020;-44
2022/11/29 11:50:40;;;;;;;12.82;5.63;;;;;;;;;;5073564;28;20017;-44
2022/11/29 11:53:07;;;;;;;9.25;5.70;;;;;;;;;;5073549;28;20021;-44
2022/11/29 11:55:42;;;;;;;10.60;6.38;;;;;;;;;;5068787;28;20031;-44
2022/11/29 11:58:15;;;;;;;10.70;5.75;;;;;;;;;;5061692;28;20035;-44
2022/11/29 12:00:51;;;;;;;11.35;5.82;;;;;;;;;;5071591;28;20099;-44
2022/11/29 12:03:29;;;;;;;10.85;5.35;;;;;;;;;;5073017;28;20491;-44
2022/11/29 12:05:57;;;;;;;11.15;5.63;;;;;;;;;;5072494;28;20032;-44
2022/11/29 12:08:23;;;;;;;10.23;5.45;;;;;;;;;;5072242;28;20017;-47
2022/11/29 12:10:51;;;;;;;9.30;5.15;;;;;;;;;;5062313;28;20033;-44
2022/11/29 12:13:20;;;;;;;11.15;5.97;;;;;;;;;;5066919;28;20035;-44
2022/11/29 12:15:48;;;;;;;8.50;4.35;;;;;;;;;;5071873;28;20025;-45
2022/11/29 12:18:17;;;;;;;8.20;4.78;;;;;;;;;;5072634;28;20355;-45
2022/11/29 12:20:52;;;;;;;14.20;5.68;;;;;;;;;;5071049;28;20591;-44
2022/11/29 12:23:40;;;;;;;7.57;4.47;;;;;;;;;;5072769;28;20024;-45
2022/11/29 12:26:23;;;;;;;7.95;4.43;;;;;;;;;;5063929;28;20021;-44
2022/11/29 12:28:49;;;;;;;8.13;4.32;;;;;;;;;;5069322;28;20039;-44
2022/11/29 12:31:21;;;;;;;9.27;4.82;;;;;;;;;;5072072;28;20470;-44
2022/11/29 12:33:47;;;;;;;8.57;3.75;;;;;;;;;;5071717;28;20038;-45
2022/11/29 12:36:20;;;;;;;7.40;3.80;;;;;;;;;;5072082;28;20087;-44
2022/11/29 12:39:02;;;;;;;7.57;4.78;;;;;;;;;;5071716;28;20032;-45
2022/11/29 12:41:28;;;;;;;;;;;;;;;;;;5070739;28;20083;-44
2022/11/29 12:43:54;;;;;;;8.90;3.75;;;;;;;;;;5072170;28;20318;-46
2022/11/29 12:46:24;;;;;;;7.15;3.38;;;;;;;;;;5060372;28;20362;-45
2022/11/29 12:48:59;;;;;;;5.32;3.17;;;;;;;;;;5072104;28;20020;-45
2022/11/29 12:51:42;;;;;;;5.45;3.22;;;;;;;;;;5071045;28;20029;-45
2022/11/29 12:54:26;;;;;;;7.38;3.80;;;;;;;;;;5067921;28;20020;-44
2022/11/29 12:56:57;;;;;;;5.95;2.40;;;;;;;;;;5064173;28;20470;-44
2022/11/29 12:59:29;;;;;;;5.82;3.22;;;;;;;;;;5071740;28;20033;-47
2022/11/29 13:02:13;;;;;;;7.13;2.72;;;;;;;;;;5067754;28;20025;-44
2022/11/29 13:04:42;;;;;;;6.55;3.25;;;;;;;;;;5071332;28;20082;-44
2022/11/29 13:07:09;;;;;;;3.80;2.50;;;;;;;;;;5071094;28;20036;-44
2022/11/29 13:09:46;;;;;;;6.78;2.72;;;;;;;;;;5065131;28;20120;-45
2022/11/29 13:12:14;;;;;;;5.95;2.75;;;;;;;;;;5068992;28;20507;-44
2022/11/29 13:14:51;;;;;;;7.97;2.75;;;;;;;;;;5070575;28;20500;-44
2022/11/29 13:17:22;;;;;;;4.90;2.60;;;;;;;;;;5071208;28;20020;-44
2022/11/29 13:20:01;;;;;;;5.45;2.63;;;;;;;;;;5059830;28;20048;-45
2022/11/29 13:22:31;;;;;;;6.32;2.45;;;;;;;;;;5070380;28;20016;-45
2022/11/29 13:25:00;;;;;;;3.65;2.38;;;;;;;;;;5071741;28;20066;-44
2022/11/29 13:27:34;;;;;;;3.22;1.98;;;;;;;;;;5070525;28;20108;-45
2022/11/29 13:30:01;;;;;;;3.88;2.15;;;;;;;;;;5071554;28;20024;-44
2022/11/29 13:32:33;;;;;;;8.55;3.20;;;;;;;;;;5070395;28;20025;-45
2022/11/29 13:34:58;;;;;;;;;;;;;;;;;;5067364;28;20041;-44
2022/11/29 13:37:47;;;;;;;3.88;2.53;;;;;;;;;;5065822;28;19904;-47
2022/11/29 13:40:16;;;;;;;6.03;2.28;;;;;;;;;;5055949;28;20108;-45
2022/11/29 13:42:55;;;;;;;4.22;2.20;;;;;;;;;;5067946;28;20032;-44
2022/11/29 13:45:27;;;;;;;5.82;2.00;;;;;;;;;;5054219;28;20019;-47
2022/11/29 13:47:55;;;;;;;3.38;2.13;;;;;;;;;;5068967;28;20035;-44
2022/11/29 13:50:40;;;;;;;5.80;2.00;;;;;;;;;;5058477;28;20029;-47
2022/11/29 13:53:17;;;;;;;3.88;1.90;;;;;;;;;;5063984;28;20035;-45
2022/11/29 13:55:44;;;;;;;4.30;2.20;;;;;;;;;;5066643;28;20821;-44
2022/11/29 13:58:30;;;;;;;8.32;2.30;;;;;;;;;;5070262;28;20473;-45
2022/11/29 14:00:59;;;;;;;5.57;2.10;;;;;;;;;;5074105;28;20432;-44
2022/11/29 14:03:25;;;;;;;6.30;1.92;;;;;;;;;;5073927;28;20099;-47
2022/11/29 14:05:52;;;;;;;4.13;2.33;;;;;;;;;;5066118;28;20100;-44
2022/11/29 14:08:26;;;;;;;5.28;2.35;;;;;;;;;;5070325;28;20442;-44
2022/11/29 14:10:56;;;;;;;4.75;2.30;;;;;;;;;;5068037;28;20033;-44
2022/11/29 14:13:24;;;;;;;2.85;1.73;;;;;;;;;;5068801;28;20023;-47
2022/11/29 14:15:57;;;;;;;4.28;1.92;;;;;;;;;;5063732;28;20028;-44
2022/11/29 14:18:36;;;;;;;2.95;1.80;;;;;;;;;;5074292;28;20028;-47
2022/11/29 14:21:03;;;;;;;4.00;2.00;;;;;;;;;;5070884;28;20028;-45
2022/11/29 14:23:39;;;;;;;9.38;2.35;;;;;;;;;;5074145;28;20025;-45
2022/11/29 14:26:05;;;;;;;9.15;2.55;;;;;;;;;;5072572;28;20039;-45
2022/11/29 14:28:34;;;;;;;4.82;2.00;;;;;;;;;;5070754;28;20477;-45
2022/11/29 14:31:01;;;;;;;2.85;1.80;;;;;;;;;;5073064;28;20028;-45
2022/11/29 14:33:45;;;;;;;4.72;1.70;;;;;;;;;;5065378;28;20761;-46
2022/11/29 14:36:16;;;;;;;3.83;1.90;;;;;;;;;;5069378;28;20036;-45
2022/11/29 14:38:48;;;;;;;6.95;1.90;;;;;;;;;;5077777;28;20028;-46
2022/11/29 14:41:45;;;;;;;4.03;1.85;;;;;;;;;;5063764;28;20401;-45
2022/11/29 14:44:19;;;;;;;2.63;1.83;;;;;;;;;;5071252;28;20044;-45
2022/11/29 14:46:46;;;;;;;3.25;1.83;;;;;;;;;;5065892;28;20078;-45
2022/11/29 14:49:20;;;;;;;2.85;1.60;;;;;;;;;;5066721;28;20367;-45
2022/11/29 14:52:05;;;;;;;4.55;1.92;;;;;;;;;;5071139;28;20473;-45
2022/11/29 14:54:32;;;;;;;5.53;1.83;;;;;;;;;;5070599;28;20021;-45
2022/11/29 14:57:18;;;;;;;4.50;1.70;;;;;;;;;;5070081;28;20060;-45
2022/11/29 14:59:44;;;;;;;4.47;1.63;;;;;;;;;;5071524;28;20063;-45
2022/11/29 15:02:26;;;;;;;5.15;2.13;;;;;;;;;;5069478;28;20060;-45
2022/11/29 15:04:56;;;;;;;2.88;1.58;;;;;;;;;;5064295;28;20036;-46
2022/11/29 15:07:36;;;;;;;4.88;2.58;;;;;;;;;;5082060;28;20028;-48
2022/11/29 15:10:03;;;;;;;8.70;2.85;;;;;;;;;;5069142;28;20097;-45
2022/11/29 15:12:34;;;;;;;4.85;2.47;;;;;;;;;;5070874;28;20020;-46
2022/11/29 15:15:08;;;;;;;5.25;1.70;;;;;;;;;;5043644;28;20028;-45
2022/11/29 15:17:45;;;;;;;3.97;1.50;;;;;;;;;;5053711;28;20032;-45
2022/11/29 15:20:36;;;;;;;4.32;2.38;;;;;;;;;;5049897;28;20423;-44
2022/11/29 15:23:04;;;;;;;15.07;2.45;;;;;;;;;;5052244;28;20359;-45
2022/11/29 15:25:43;;;;;;;3.95;1.70;;;;;;;;;;5067112;28;20036;-44
2022/11/29 15:28:20;;;;;;;8.88;2.45;;;;;;;;;;5069634;28;20436;-45
2022/11/29 15:31:00;;;;;;;3.17;1.67;;;;;;;;;;5065666;28;20072;-45
2022/11/29 15:33:26;;;;;;;4.10;1.50;;;;;;;;;;5071523;28;20029;-47
2022/11/29 15:35:56;;;;;;;3.40;1.67;;;;;;;;;;5062516;28;20037;-45
2022/11/29 15:38:23;;;;;;;3.60;1.70;;;;;;;;;;5054138;28;20094;-48
2022/11/29 15:40:53;;;;;;;2.80;1.60;;;;;;;;;;5067806;28;20052;-45